Time;durP1;ratioP1;P1;durP2;ratioP2;P2;SDS_P1;SDS_P2;PMS_P1;PMS_P2;Temp;Humidity;BMP_temperature;BMP_pressure;BME280_temperature;BME280_humidity;BME280_pressure;Samples;Min_cycle;Max_cycle;Signal;HPM_P1;HPM_P2
2021/12/28 00:01:09;;;;;;;13.75;5.28;;;;;;;;;;4988106;28;20153;-67
2021/12/28 00:03:38;;;;;;;11.77;5.28;;;;;;;;;;4986326;28;20054;-67
2021/12/28 00:06:07;;;;;;;10.60;4.13;;;;;;;;;;4985526;28;20133;-67
2021/12/28 00:08:36;;;;;;;14.68;5.47;;;;;;;;;;4987892;28;20133;-67
2021/12/28 00:11:08;;;;;;;11.32;4.95;;;;;;;;;;4988254;28;20141;-67
2021/12/28 00:13:37;;;;;;;9.43;4.38;;;;;;;;;;4987958;28;20052;-67
2021/12/28 00:18:55;;;;;;;7.10;3.67;;;;;;;;;;4988699;28;20053;-67
2021/12/28 00:21:23;;;;;;;7.13;3.47;;;;;;;;;;4980867;28;20069;-67
2021/12/28 00:23:53;;;;;;;6.65;3.03;;;;;;;;;;4987055;28;20494;-67
2021/12/28 00:26:23;;;;;;;9.90;3.72;;;;;;;;;;4990885;28;20525;-67
2021/12/28 00:28:51;;;;;;;6.82;3.05;;;;;;;;;;4991786;28;20052;-67
2021/12/28 00:31:22;;;;;;;7.15;3.25;;;;;;;;;;4991070;28;20561;-67
2021/12/28 00:33:52;;;;;;;7.55;3.33;;;;;;;;;;4991165;28;20042;-67
2021/12/28 00:36:20;;;;;;;8.15;3.53;;;;;;;;;;4989645;28;20081;-67
2021/12/28 00:38:48;;;;;;;7.65;3.53;;;;;;;;;;4990836;28;20146;-67
2021/12/28 00:41:18;;;;;;;5.13;2.80;;;;;;;;;;4990893;28;20048;-67
2021/12/28 00:43:46;;;;;;;4.90;2.90;;;;;;;;;;4991604;28;20074;-67
2021/12/28 00:46:14;;;;;;;5.55;2.78;;;;;;;;;;4990865;28;20145;-67
2021/12/28 00:48:43;;;;;;;5.43;2.75;;;;;;;;;;4991787;28;20042;-67
2021/12/28 00:51:11;;;;;;;5.45;2.55;;;;;;;;;;4990333;28;20145;-67
2021/12/28 00:53:39;;;;;;;8.43;3.20;;;;;;;;;;4991329;28;20047;-67
2021/12/28 00:56:08;;;;;;;4.35;2.63;;;;;;;;;;4989508;28;20550;-67
2021/12/28 00:58:38;;;;;;;7.53;3.08;;;;;;;;;;4991576;28;20133;-67
2021/12/28 01:01:09;;;;;;;4.90;2.72;;;;;;;;;;4990656;28;20054;-67
2021/12/28 01:03:38;;;;;;;4.13;2.28;;;;;;;;;;4991354;28;20077;-67
2021/12/28 01:06:07;;;;;;;4.55;2.60;;;;;;;;;;4986923;28;20144;-67
2021/12/28 01:08:35;;;;;;;4.47;2.63;;;;;;;;;;4990603;28;20473;-67
2021/12/28 01:11:07;;;;;;;5.70;2.88;;;;;;;;;;4990600;28;20059;-67
2021/12/28 01:13:37;;;;;;;3.60;2.42;;;;;;;;;;4990993;28;20137;-67
2021/12/28 01:16:09;;;;;;;5.95;2.92;;;;;;;;;;4990176;28;20058;-67
2021/12/28 01:18:37;;;;;;;5.85;2.50;;;;;;;;;;4990366;28;20113;-67
2021/12/28 01:21:06;;;;;;;5.20;2.65;;;;;;;;;;4990368;28;20093;-67
2021/12/28 01:23:34;;;;;;;4.03;2.28;;;;;;;;;;4989129;28;20490;-67
2021/12/28 01:26:06;;;;;;;3.08;2.20;;;;;;;;;;4989657;28;20050;-67
2021/12/28 01:28:34;;;;;;;4.57;2.17;;;;;;;;;;4990559;28;20053;-67
2021/12/28 01:31:06;;;;;;;5.72;2.30;;;;;;;;;;4990336;28;20125;-67
2021/12/28 01:33:35;;;;;;;4.05;2.20;;;;;;;;;;4990211;28;20050;-67
2021/12/28 01:36:07;;;;;;;4.75;2.08;;;;;;;;;;4989241;28;20137;-67
2021/12/28 01:38:35;;;;;;;4.22;1.95;;;;;;;;;;4988584;28;20046;-67
2021/12/28 01:41:09;;;;;;;4.97;2.25;;;;;;;;;;4986205;28;20054;-67
2021/12/28 01:43:39;;;;;;;5.50;2.63;;;;;;;;;;4987687;28;20085;-67
2021/12/28 01:46:09;;;;;;;4.28;2.05;;;;;;;;;;4989071;28;20157;-67
2021/12/28 01:48:38;;;;;;;3.08;2.00;;;;;;;;;;4987453;28;20073;-67
2021/12/28 01:51:08;;;;;;;4.25;1.90;;;;;;;;;;4986992;28;20478;-67
2021/12/28 01:53:37;;;;;;;5.47;2.10;;;;;;;;;;4989532;28;20064;-67
2021/12/28 01:56:10;;;;;;;3.90;1.73;;;;;;;;;;4989233;28;20086;-67
2021/12/28 01:58:39;;;;;;;4.55;2.05;;;;;;;;;;4990635;28;20085;-67
2021/12/28 02:01:09;;;;;;;4.10;2.15;;;;;;;;;;4989509;28;20566;-67
2021/12/28 02:03:38;;;;;;;3.58;2.00;;;;;;;;;;4990583;28;20050;-67
2021/12/28 02:06:09;;;;;;;2.40;1.60;;;;;;;;;;4988993;28;20137;-67
2021/12/28 02:08:38;;;;;;;3.35;1.80;;;;;;;;;;4989065;28;20502;-67
2021/12/28 02:11:07;;;;;;;2.70;1.67;;;;;;;;;;4988349;28;20054;-67
2021/12/28 02:13:35;;;;;;;3.28;1.98;;;;;;;;;;4990224;28;20142;-67
2021/12/28 02:16:06;;;;;;;2.40;1.75;;;;;;;;;;4988638;28;20054;-67
2021/12/28 02:18:36;;;;;;;2.33;1.70;;;;;;;;;;4989307;28;20517;-67
2021/12/28 02:21:09;;;;;;;4.00;1.60;;;;;;;;;;4988288;28;20089;-67
2021/12/28 02:23:37;;;;;;;2.35;1.45;;;;;;;;;;4980814;28;20052;-67
2021/12/28 02:26:06;;;;;;;2.75;1.88;;;;;;;;;;4989036;28;20141;-67
2021/12/28 02:28:34;;;;;;;2.88;1.48;;;;;;;;;;4988639;28;20054;-67
2021/12/28 02:31:06;;;;;;;1.88;1.58;;;;;;;;;;4989270;28;20061;-67
2021/12/28 02:33:36;;;;;;;2.72;1.70;;;;;;;;;;4980589;28;20057;-67
2021/12/28 02:36:17;;;;;;;2.65;1.50;;;;;;;;;;3907379;28;10001972;-67
2021/12/28 02:38:45;;;;;;;2.08;1.38;;;;;;;;;;2062410;28;10001980;-67
2021/12/28 02:41:14;;;;;;;2.65;1.50;;;;;;;;;;4986318;28;20074;-67
2021/12/28 02:43:45;;;;;;;1.00;0.90;;;;;;;;;;4985311;28;20530;-67
2021/12/28 02:46:15;;;;;;;1.70;1.35;;;;;;;;;;4985496;28;20133;-67
2021/12/28 02:48:43;;;;;;;1.52;1.20;;;;;;;;;;4985710;28;20054;-67
2021/12/28 02:51:13;;;;;;;1.58;1.10;;;;;;;;;;4987266;28;20077;-67
2021/12/28 02:53:42;;;;;;;2.47;1.25;;;;;;;;;;4987104;28;20142;-67
2021/12/28 02:56:11;;;;;;;1.13;1.00;;;;;;;;;;4985926;28;20149;-67
2021/12/28 02:58:40;;;;;;;1.50;1.00;;;;;;;;;;4987578;28;20081;-67
2021/12/28 03:01:10;;;;;;;1.13;1.02;;;;;;;;;;4987283;28;20062;-67
2021/12/28 03:03:39;;;;;;;1.88;1.30;;;;;;;;;;4986763;28;20050;-67
2021/12/28 03:06:10;;;;;;;1.52;1.00;;;;;;;;;;4986845;28;20082;-67
2021/12/28 03:08:39;;;;;;;1.52;1.25;;;;;;;;;;4987010;28;20137;-67
2021/12/28 03:11:09;;;;;;;2.08;1.75;;;;;;;;;;4985734;28;20046;-67
2021/12/28 03:13:39;;;;;;;1.75;1.10;;;;;;;;;;4987633;28;20384;-67
2021/12/28 03:16:08;;;;;;;2.83;1.10;;;;;;;;;;4986929;28;20128;-67
2021/12/28 03:18:36;;;;;;;1.55;0.90;;;;;;;;;;4986749;28;20042;-67
2021/12/28 03:21:08;;;;;;;1.17;0.90;;;;;;;;;;4989981;28;20050;-67
2021/12/28 03:23:37;;;;;;;1.88;1.20;;;;;;;;;;4991137;28;20137;-67
2021/12/28 03:26:10;;;;;;;1.95;1.10;;;;;;;;;;4990662;28;20177;-67
2021/12/28 03:28:41;;;;;;;1.70;1.10;;;;;;;;;;4990099;28;20046;-67
2021/12/28 03:31:11;;;;;;;2.75;1.05;;;;;;;;;;4990909;28;20049;-67
2021/12/28 03:33:41;;;;;;;1.90;1.00;;;;;;;;;;4991934;28;20108;-67
2021/12/28 03:36:09;;;;;;;1.17;1.02;;;;;;;;;;4992741;28;20502;-67
2021/12/28 03:38:39;;;;;;;1.35;1.02;;;;;;;;;;4991570;28;20053;-67
2021/12/28 03:41:08;;;;;;;1.95;0.95;;;;;;;;;;4990254;28;20145;-67
2021/12/28 03:43:39;;;;;;;1.73;0.90;;;;;;;;;;4989360;28;20137;-67
2021/12/28 03:46:07;;;;;;;2.33;1.20;;;;;;;;;;4991252;28;20165;-67
2021/12/28 03:48:36;;;;;;;1.88;1.08;;;;;;;;;;4988996;28;20073;-67
2021/12/28 03:51:08;;;;;;;3.22;1.20;;;;;;;;;;4989476;28;20493;-67
2021/12/28 03:53:37;;;;;;;1.33;1.00;;;;;;;;;;4990681;28;20053;-67
2021/12/28 03:56:10;;;;;;;2.63;0.90;;;;;;;;;;4990024;28;20157;-67
2021/12/28 03:58:40;;;;;;;1.58;0.88;;;;;;;;;;4989268;28;20140;-67
2021/12/28 04:01:09;;;;;;;1.92;1.08;;;;;;;;;;4989944;28;20053;-67
2021/12/28 04:03:38;;;;;;;2.10;1.10;;;;;;;;;;4992739;28;20137;-67
2021/12/28 04:06:10;;;;;;;1.67;1.00;;;;;;;;;;4991104;28;20597;-67
2021/12/28 04:08:38;;;;;;;1.17;0.95;;;;;;;;;;4991710;28;20508;-67
2021/12/28 04:11:25;;;;;;;2.83;1.13;;;;;;;;;;4991325;28;20133;-67
2021/12/28 04:14:01;;;;;;;1.40;1.05;;;;;;;;;;4987610;28;20062;-67
2021/12/28 04:16:30;;;;;;;3.80;0.90;;;;;;;;;;4990901;28;20129;-67
2021/12/28 04:18:58;;;;;;;0.90;0.70;;;;;;;;;;4991185;28;20570;-67
2021/12/28 04:21:27;;;;;;;0.98;0.77;;;;;;;;;;4991638;28;20559;-67
2021/12/28 04:23:55;;;;;;;1.10;0.90;;;;;;;;;;4991509;28;20060;-67
2021/12/28 04:26:24;;;;;;;1.35;0.70;;;;;;;;;;4991441;28;20069;-67
2021/12/28 04:28:53;;;;;;;2.45;1.13;;;;;;;;;;4990886;28;20161;-67
2021/12/28 04:31:23;;;;;;;1.88;1.23;;;;;;;;;;4991253;28;20588;-67
2021/12/28 04:33:51;;;;;;;1.52;0.80;;;;;;;;;;4991999;28;20049;-67
2021/12/28 04:36:20;;;;;;;2.83;1.20;;;;;;;;;;4992067;28;20047;-67
2021/12/28 04:38:48;;;;;;;3.20;0.90;;;;;;;;;;4991684;28;20132;-67
2021/12/28 04:41:17;;;;;;;1.98;1.17;;;;;;;;;;4991340;28;20138;-67
2021/12/28 04:43:47;;;;;;;4.38;1.10;;;;;;;;;;4990622;28;20145;-67
2021/12/28 04:46:15;;;;;;;1.00;0.85;;;;;;;;;;4987539;28;20082;-67
2021/12/28 04:48:45;;;;;;;1.55;0.80;;;;;;;;;;4990863;28;20494;-67
2021/12/28 04:51:14;;;;;;;2.13;0.90;;;;;;;;;;4990845;28;20101;-67
2021/12/28 04:53:42;;;;;;;3.08;0.93;;;;;;;;;;4991074;28;20046;-67
2021/12/28 04:56:10;;;;;;;1.73;1.00;;;;;;;;;;4990549;28;20078;-67
2021/12/28 04:58:38;;;;;;;2.05;0.95;;;;;;;;;;4990757;28;20125;-67
2021/12/28 05:01:07;;;;;;;1.40;0.80;;;;;;;;;;4988972;28;20130;-67
2021/12/28 05:03:35;;;;;;;2.08;0.98;;;;;;;;;;4978930;28;20077;-67
2021/12/28 05:06:07;;;;;;;2.83;1.02;;;;;;;;;;4990615;28;20104;-67
2021/12/28 05:08:54;;;;;;;6.22;0.98;;;;;;;;;;2255203;28;10023751;-67
2021/12/28 05:11:22;;;;;;;3.15;1.15;;;;;;;;;;3610202;28;10001503;-67
2021/12/28 05:13:51;;;;;;;1.65;1.00;;;;;;;;;;4987194;28;20494;-67
2021/12/28 05:16:19;;;;;;;1.08;0.70;;;;;;;;;;4989452;28;20078;-67
2021/12/28 05:18:47;;;;;;;1.73;1.00;;;;;;;;;;4991148;28;20125;-67
2021/12/28 05:21:17;;;;;;;1.08;0.80;;;;;;;;;;4990773;28;20136;-67
2021/12/28 05:23:45;;;;;;;1.75;1.00;;;;;;;;;;4989599;28;20077;-67
2021/12/28 05:26:13;;;;;;;2.60;1.00;;;;;;;;;;4990239;28;20137;-67
2021/12/28 05:28:42;;;;;;;2.22;0.60;;;;;;;;;;4989809;28;20512;-67
2021/12/28 05:31:10;;;;;;;2.33;0.77;;;;;;;;;;4989835;28;20050;-66
2021/12/28 05:33:38;;;;;;;1.83;0.75;;;;;;;;;;4990354;28;20078;-66
2021/12/28 05:36:07;;;;;;;1.10;0.63;;;;;;;;;;4990854;28;20570;-67
2021/12/28 05:38:37;;;;;;;1.80;0.82;;;;;;;;;;4990328;28;20121;-67
2021/12/28 05:41:09;;;;;;;3.28;0.80;;;;;;;;;;4989598;28;20849;-67
2021/12/28 05:43:37;;;;;;;0.95;0.73;;;;;;;;;;4984551;28;20144;-67
2021/12/28 05:46:08;;;;;;;2.65;0.85;;;;;;;;;;4980408;28;20140;-66
2021/12/28 05:48:37;;;;;;;1.50;0.77;;;;;;;;;;4986865;28;20058;-66
2021/12/28 05:51:08;;;;;;;1.60;0.90;;;;;;;;;;4986360;28;20607;-66
2021/12/28 05:53:37;;;;;;;3.10;1.27;;;;;;;;;;4985030;28;20077;-67
2021/12/28 05:56:09;;;;;;;3.80;1.00;;;;;;;;;;4985938;28;20514;-67
2021/12/28 05:58:37;;;;;;;4.35;1.65;;;;;;;;;;4977365;28;20125;-67
2021/12/28 06:01:08;;;;;;;3.28;1.00;;;;;;;;;;4982972;28;20204;-66
2021/12/28 06:03:37;;;;;;;1.88;0.90;;;;;;;;;;4984417;28;20149;-67
2021/12/28 06:06:08;;;;;;;4.22;0.80;;;;;;;;;;4985744;28;20145;-67
2021/12/28 06:08:38;;;;;;;4.20;1.10;;;;;;;;;;4987170;28;20125;-67
2021/12/28 06:11:11;;;;;;;1.67;0.70;;;;;;;;;;4989142;28;20140;-67
2021/12/28 06:13:41;;;;;;;1.45;0.90;;;;;;;;;;4985839;28;20046;-67
2021/12/28 06:16:09;;;;;;;2.78;0.90;;;;;;;;;;4978777;28;20058;-67
2021/12/28 06:18:38;;;;;;;2.20;1.00;;;;;;;;;;4984792;28;20417;-67
2021/12/28 06:21:09;;;;;;;2.00;0.73;;;;;;;;;;4985565;28;20062;-67
2021/12/28 06:23:39;;;;;;;3.42;0.85;;;;;;;;;;4985235;28;20144;-67
2021/12/28 06:26:07;;;;;;;2.45;0.63;;;;;;;;;;4985638;28;20050;-67
2021/12/28 06:28:36;;;;;;;5.07;0.80;;;;;;;;;;4986157;28;20517;-67
2021/12/28 06:31:07;;;;;;;1.13;0.63;;;;;;;;;;4984971;28;20090;-67
2021/12/28 06:33:35;;;;;;;2.17;0.60;;;;;;;;;;4986499;28;20057;-67
2021/12/28 06:36:06;;;;;;;2.20;0.80;;;;;;;;;;4983956;28;20525;-67
2021/12/28 06:38:35;;;;;;;1.48;0.77;;;;;;;;;;4981282;28;20552;-67
2021/12/28 06:41:08;;;;;;;4.40;0.80;;;;;;;;;;4983881;28;20046;-67
2021/12/28 06:43:49;;;;;;;0.50;0.50;;;;;;;;;;1697831;28;10022736;-69
2021/12/28 06:46:18;;;;;;;1.85;0.80;;;;;;;;;;3950590;28;10001182;-67
2021/12/28 06:48:47;;;;;;;1.30;0.70;;;;;;;;;;4984408;28;20051;-67
2021/12/28 06:51:15;;;;;;;1.05;0.45;;;;;;;;;;4981871;28;20577;-67
2021/12/28 06:53:43;;;;;;;0.82;0.50;;;;;;;;;;4980592;28;20097;-67
2021/12/28 06:56:13;;;;;;;1.85;0.70;;;;;;;;;;4985219;28;20058;-67
2021/12/28 06:58:42;;;;;;;1.67;0.60;;;;;;;;;;4987249;28;20365;-67
2021/12/28 07:01:11;;;;;;;1.50;0.70;;;;;;;;;;4981284;28;20050;-67
2021/12/28 07:03:39;;;;;;;1.67;0.50;;;;;;;;;;4986814;28;20490;-67
2021/12/28 07:06:08;;;;;;;1.80;0.80;;;;;;;;;;4989510;28;20060;-67
2021/12/28 07:08:36;;;;;;;4.85;0.75;;;;;;;;;;4985388;28;20463;-67
2021/12/28 07:11:07;;;;;;;1.15;0.68;;;;;;;;;;4989665;28;20511;-67
2021/12/28 07:13:37;;;;;;;2.25;1.05;;;;;;;;;;4986673;28;20125;-67
2021/12/28 07:16:08;;;;;;;5.63;0.90;;;;;;;;;;4989878;28;20150;-67
2021/12/28 07:18:37;;;;;;;1.23;0.80;;;;;;;;;;4989051;28;20506;-67
2021/12/28 07:21:08;;;;;;;1.27;0.80;;;;;;;;;;4986265;28;20132;-67
2021/12/28 07:23:37;;;;;;;2.67;0.80;;;;;;;;;;4989319;28;20145;-67
2021/12/28 07:26:08;;;;;;;0.70;0.70;;;;;;;;;;4983550;28;20449;-67
2021/12/28 07:28:37;;;;;;;1.08;0.70;;;;;;;;;;4990489;28;20137;-66
2021/12/28 07:31:08;;;;;;;3.28;1.00;;;;;;;;;;4988472;28;20050;-66
2021/12/28 07:33:36;;;;;;;1.65;0.60;;;;;;;;;;4989227;28;20061;-67
2021/12/28 07:36:08;;;;;;;1.77;0.63;;;;;;;;;;4989579;28;20153;-67
2021/12/28 07:38:36;;;;;;;2.13;0.70;;;;;;;;;;4985927;28;20137;-67
2021/12/28 07:41:07;;;;;;;1.98;0.82;;;;;;;;;;4988874;28;20052;-67
2021/12/28 07:43:37;;;;;;;1.45;0.70;;;;;;;;;;4987655;28;20128;-67
2021/12/28 07:46:08;;;;;;;0.68;0.60;;;;;;;;;;4989406;28;20146;-68
2021/12/28 07:48:37;;;;;;;1.92;0.80;;;;;;;;;;4988632;28;20054;-67
2021/12/28 07:51:08;;;;;;;2.80;1.00;;;;;;;;;;949308;28;10002066;-67
2021/12/28 07:53:36;;;;;;;3.00;0.80;;;;;;;;;;4972263;28;20049;-67
2021/12/28 07:56:07;;;;;;;2.45;0.80;;;;;;;;;;4987487;28;20060;-66
2021/12/28 07:58:37;;;;;;;2.25;0.93;;;;;;;;;;4985746;28;20395;-67
2021/12/28 08:01:06;;;;;;;2.08;0.88;;;;;;;;;;4984083;28;20112;-67
2021/12/28 08:03:34;;;;;;;3.20;0.80;;;;;;;;;;4985408;28;20057;-67
2021/12/28 08:06:05;;;;;;;1.88;0.88;;;;;;;;;;4987131;28;20129;-68
2021/12/28 08:08:33;;;;;;;2.78;0.90;;;;;;;;;;4989113;28;20050;-67
2021/12/28 08:11:02;;;;;;;3.22;0.80;;;;;;;;;;4988677;28;20084;-67
2021/12/28 08:13:32;;;;;;;2.50;0.90;;;;;;;;;;4988201;28;20046;-67
2021/12/28 08:16:01;;;;;;;5.15;0.98;;;;;;;;;;4988208;28;20046;-67
2021/12/28 08:18:32;;;;;;;1.90;0.70;;;;;;;;;;4983369;28;20065;-68
2021/12/28 08:21:00;;;;;;;2.72;1.20;;;;;;;;;;4986080;28;20450;-66
2021/12/28 08:23:29;;;;;;;2.20;1.10;;;;;;;;;;4987276;28;20073;-67
2021/12/28 08:25:57;;;;;;;0.90;0.68;;;;;;;;;;4987161;28;20154;-67
2021/12/28 08:28:25;;;;;;;1.42;0.85;;;;;;;;;;4987309;28;20109;-67
2021/12/28 08:30:54;;;;;;;2.03;0.63;;;;;;;;;;4987344;28;20137;-67
2021/12/28 08:33:24;;;;;;;3.40;1.10;;;;;;;;;;4987071;28;20271;-67
2021/12/28 08:35:53;;;;;;;3.90;0.90;;;;;;;;;;4979950;28;20154;-67
2021/12/28 08:38:21;;;;;;;1.60;0.90;;;;;;;;;;4981014;28;20453;-67
2021/12/28 08:40:50;;;;;;;1.88;0.80;;;;;;;;;;4987191;28;20053;-66
2021/12/28 08:43:19;;;;;;;3.17;1.23;;;;;;;;;;4986063;28;20066;-67
2021/12/28 08:45:47;;;;;;;0.95;0.80;;;;;;;;;;4986827;28;20828;-66
2021/12/28 08:48:15;;;;;;;3.63;0.90;;;;;;;;;;4987021;28;20065;-66
2021/12/28 08:50:45;;;;;;;2.97;1.17;;;;;;;;;;4988447;28;20042;-67
2021/12/28 08:53:14;;;;;;;2.05;1.00;;;;;;;;;;4986567;28;20137;-68
2021/12/28 08:55:42;;;;;;;1.15;0.88;;;;;;;;;;4991175;28;20081;-67
2021/12/28 08:58:11;;;;;;;1.35;0.75;;;;;;;;;;4984442;28;20122;-67
2021/12/28 09:00:54;;;;;;;2.87;0.67;;;;;;;;;;3178190;28;10002498;-67
2021/12/28 09:03:22;;;;;;;2.70;1.00;;;;;;;;;;2919724;28;10001650;-67
2021/12/28 09:05:52;;;;;;;2.03;0.98;;;;;;;;;;4991578;28;20085;-67
2021/12/28 09:08:21;;;;;;;4.57;1.10;;;;;;;;;;4988720;28;20471;-67
2021/12/28 09:10:49;;;;;;;2.08;1.27;;;;;;;;;;4989435;28;20545;-67
2021/12/28 09:13:18;;;;;;;1.88;1.33;;;;;;;;;;4989322;28;20535;-67
2021/12/28 09:15:47;;;;;;;1.88;1.13;;;;;;;;;;4984699;28;20082;-68
2021/12/28 09:18:16;;;;;;;1.70;1.05;;;;;;;;;;4988803;28;21874;-68
2021/12/28 09:20:45;;;;;;;3.67;1.77;;;;;;;;;;4989609;28;20133;-67
2021/12/28 09:23:15;;;;;;;5.05;1.02;;;;;;;;;;4979947;28;20046;-67
2021/12/28 09:26:06;;;;;;;5.47;1.42;;;;;;;;;;4988921;28;20065;-67
2021/12/28 09:28:35;;;;;;;3.05;1.45;;;;;;;;;;4990470;28;20417;-67
2021/12/28 09:31:08;;;;;;;3.75;1.45;;;;;;;;;;4990906;28;20046;-68
2021/12/28 09:33:36;;;;;;;5.78;2.13;;;;;;;;;;4981082;28;20057;-67
2021/12/28 09:36:14;;;;;;;6.32;2.15;;;;;;;;;;4989558;28;20043;-67
2021/12/28 09:38:45;;;;;;;7.72;2.03;;;;;;;;;;4990193;28;20042;-67
2021/12/28 09:41:13;;;;;;;10.95;2.10;;;;;;;;;;4990272;28;20057;-67
2021/12/28 09:43:41;;;;;;;7.75;2.40;;;;;;;;;;4988971;28;20497;-67
2021/12/28 09:46:10;;;;;;;4.93;2.65;;;;;;;;;;4989766;28;20061;-67
2021/12/28 09:48:38;;;;;;;8.10;2.58;;;;;;;;;;4990744;28;20046;-68
2021/12/28 09:51:07;;;;;;;6.13;2.15;;;;;;;;;;4989817;28;20081;-68
2021/12/28 09:53:38;;;;;;;6.10;2.13;;;;;;;;;;4982815;28;20054;-68
2021/12/28 09:56:08;;;;;;;6.18;2.08;;;;;;;;;;4988270;28;20053;-68
2021/12/28 09:58:36;;;;;;;10.52;2.05;;;;;;;;;;4989339;28;20072;-67
2021/12/28 10:01:09;;;;;;;4.97;2.22;;;;;;;;;;4988923;28;20073;-67
2021/12/28 10:03:39;;;;;;;6.05;2.55;;;;;;;;;;4989835;28;20064;-68
2021/12/28 10:06:20;;;;;;;10.35;2.33;;;;;;;;;;4989391;28;20130;-68
2021/12/28 10:08:50;;;;;;;6.57;2.60;;;;;;;;;;4987148;28;20145;-67
2021/12/28 10:11:31;;;;;;;6.95;2.28;;;;;;;;;;4988664;28;20054;-68
2021/12/28 10:14:11;;;;;;;4.80;1.83;;;;;;;;;;4980954;28;20046;-68
2021/12/28 10:16:51;;;;;;;5.57;2.05;;;;;;;;;;4989189;28;20561;-67
2021/12/28 10:19:32;;;;;;;9.65;2.35;;;;;;;;;;4988365;28;20568;-68
2021/12/28 10:22:16;;;;;;;4.40;1.80;;;;;;;;;;4987355;28;21274;-68
2021/12/28 10:24:45;;;;;;;6.20;1.73;;;;;;;;;;4985081;28;20137;-68
2021/12/28 10:27:17;;;;;;;7.50;2.33;;;;;;;;;;4988412;28;20137;-67
2021/12/28 10:29:46;;;;;;;6.13;2.55;;;;;;;;;;4985031;28;20074;-67
2021/12/28 10:32:22;;;;;;;6.28;2.28;;;;;;;;;;4987452;28;20568;-69
2021/12/28 10:34:52;;;;;;;9.60;2.33;;;;;;;;;;4989315;28;20119;-68
2021/12/28 10:37:21;;;;;;;6.90;1.95;;;;;;;;;;4980684;28;20142;-68
2021/12/28 10:39:51;;;;;;;8.38;2.67;;;;;;;;;;4989162;28;20603;-68
2021/12/28 10:42:43;;;;;;;5.55;1.60;;;;;;;;;;4989072;28;20449;-68
2021/12/28 10:45:13;;;;;;;6.57;2.15;;;;;;;;;;4987054;28;20133;-68
2021/12/28 10:47:42;;;;;;;6.68;2.13;;;;;;;;;;4988889;28;20424;-68
2021/12/28 10:50:30;;;;;;;6.20;1.80;;;;;;;;;;4984776;28;20390;-68
2021/12/28 10:53:04;;;;;;;9.10;2.10;;;;;;;;;;4984015;28;20096;-68
2021/12/28 10:55:32;;;;;;;2.72;1.77;;;;;;;;;;4988625;28;20042;-68
2021/12/28 10:58:02;;;;;;;4.38;1.80;;;;;;;;;;4989384;28;20141;-68
2021/12/28 11:00:36;;;;;;;8.55;1.65;;;;;;;;;;2082126;28;10023756;-69
2021/12/28 11:03:18;;;;;;;6.28;1.48;;;;;;;;;;3938363;28;10001773;-68
2021/12/28 11:05:48;;;;;;;5.43;1.60;;;;;;;;;;4987935;28;20405;-68
2021/12/28 11:08:17;;;;;;;4.18;1.60;;;;;;;;;;4989084;28;20153;-67
2021/12/28 11:10:48;;;;;;;2.55;1.33;;;;;;;;;;4987572;28;20078;-67
2021/12/28 11:13:19;;;;;;;3.95;1.58;;;;;;;;;;4989483;28;20153;-67
2021/12/28 11:15:49;;;;;;;4.53;1.42;;;;;;;;;;4985135;28;20101;-67
2021/12/28 11:18:18;;;;;;;2.17;1.30;;;;;;;;;;4988883;28;20142;-67
2021/12/28 11:20:47;;;;;;;2.58;1.40;;;;;;;;;;4989256;28;20125;-67
2021/12/28 11:23:16;;;;;;;3.80;1.30;;;;;;;;;;4989147;28;20050;-67
2021/12/28 11:25:45;;;;;;;3.55;1.33;;;;;;;;;;4987958;28;20050;-67
2021/12/28 11:28:14;;;;;;;1.30;1.05;;;;;;;;;;4984662;28;20137;-67
2021/12/28 11:30:57;;;;;;;2.40;1.65;;;;;;;;;;4988537;28;20232;-67
2021/12/28 11:33:27;;;;;;;3.30;0.93;;;;;;;;;;4988556;28;20046;-68
2021/12/28 11:35:55;;;;;;;3.83;1.20;;;;;;;;;;4987942;28;20042;-68
2021/12/28 11:38:24;;;;;;;7.18;1.45;;;;;;;;;;4986745;28;20443;-67
2021/12/28 11:40:53;;;;;;;2.75;1.65;;;;;;;;;;4982655;28;20045;-68
2021/12/28 11:43:21;;;;;;;2.95;1.20;;;;;;;;;;4979559;28;20054;-68
2021/12/28 11:45:49;;;;;;;3.35;1.08;;;;;;;;;;4980710;28;20113;-67
2021/12/28 11:48:17;;;;;;;2.58;1.02;;;;;;;;;;4990228;28;20090;-68
2021/12/28 11:50:47;;;;;;;2.10;1.30;;;;;;;;;;4990858;28;20453;-68
2021/12/28 11:53:16;;;;;;;2.08;1.10;;;;;;;;;;4991237;28;20141;-68
2021/12/28 11:55:45;;;;;;;1.85;0.90;;;;;;;;;;4990133;28;20039;-68
2021/12/28 11:58:13;;;;;;;2.60;1.00;;;;;;;;;;4991382;28;20097;-67
2021/12/28 12:00:43;;;;;;;3.60;0.90;;;;;;;;;;4990417;28;20464;-68
2021/12/28 12:03:32;;;;;;;1.50;0.82;;;;;;;;;;4991330;28;20046;-67
2021/12/28 12:06:05;;;;;;;0.95;0.70;;;;;;;;;;4991389;28;20077;-68
2021/12/28 12:08:35;;;;;;;1.02;0.70;;;;;;;;;;4984794;28;20109;-67
2021/12/28 12:11:06;;;;;;;1.35;0.88;;;;;;;;;;4990746;28;20382;-68
2021/12/28 12:13:37;;;;;;;2.88;0.85;;;;;;;;;;4992037;28;20042;-68
2021/12/28 12:16:15;;;;;;;3.40;0.82;;;;;;;;;;4985965;28;20046;-68
2021/12/28 12:18:46;;;;;;;1.88;0.85;;;;;;;;;;4990437;28;20050;-68
2021/12/28 12:21:19;;;;;;;1.25;0.80;;;;;;;;;;4985196;28;20130;-68
2021/12/28 12:23:48;;;;;;;1.35;0.65;;;;;;;;;;4990466;28;20485;-68
2021/12/28 12:26:21;;;;;;;4.10;0.80;;;;;;;;;;4980891;28;20130;-67
2021/12/28 12:28:54;;;;;;;3.97;0.70;;;;;;;;;;4991275;28;20141;-67
2021/12/28 12:31:30;;;;;;;1.77;0.70;;;;;;;;;;4994943;28;20133;-67
2021/12/28 12:33:59;;;;;;;3.38;1.20;;;;;;;;;;4990742;28;20057;-67
2021/12/28 12:36:34;;;;;;;0.90;0.70;;;;;;;;;;4986257;28;20406;-67
2021/12/28 12:39:03;;;;;;;1.13;0.75;;;;;;;;;;4990033;28;20125;-67
2021/12/28 12:41:42;;;;;;;2.05;0.60;;;;;;;;;;4989783;28;20086;-68
2021/12/28 12:44:13;;;;;;;1.30;0.80;;;;;;;;;;4990779;28;20066;-68
2021/12/28 12:46:43;;;;;;;1.13;0.80;;;;;;;;;;4989388;28;20073;-68
2021/12/28 12:49:14;;;;;;;1.05;0.68;;;;;;;;;;4987428;28;20061;-68
2021/12/28 12:51:49;;;;;;;1.58;1.05;;;;;;;;;;4989668;28;20046;-69
2021/12/28 12:54:23;;;;;;;1.38;0.75;;;;;;;;;;4988967;28;20050;-68
2021/12/28 12:57:08;;;;;;;0.60;0.60;;;;;;;;;;4988010;28;20046;-66
2021/12/28 12:59:44;;;;;;;1.38;0.68;;;;;;;;;;4983826;28;20083;-65
2021/12/28 13:02:15;;;;;;;2.72;0.90;;;;;;;;;;4987918;28;20050;-64
2021/12/28 13:04:45;;;;;;;1.90;0.57;;;;;;;;;;4990796;28;20046;-64
2021/12/28 13:07:16;;;;;;;1.02;0.70;;;;;;;;;;4989539;28;20082;-64
2021/12/28 13:09:46;;;;;;;2.45;0.85;;;;;;;;;;4982101;28;20422;-64
2021/12/28 13:12:16;;;;;;;0.88;0.60;;;;;;;;;;4981628;28;20046;-64
2021/12/28 13:14:45;;;;;;;1.20;0.80;;;;;;;;;;4990409;28;20129;-64
2021/12/28 13:17:16;;;;;;;1.13;0.73;;;;;;;;;;4983170;28;20048;-64
2021/12/28 13:19:57;;;;;;;1.65;0.60;;;;;;;;;;4988444;28;20789;-64
2021/12/28 13:22:28;;;;;;;2.65;0.80;;;;;;;;;;4989437;28;20046;-64
2021/12/28 13:24:57;;;;;;;1.95;0.73;;;;;;;;;;4990310;28;20465;-64
2021/12/28 13:27:27;;;;;;;1.45;0.68;;;;;;;;;;4980165;28;20075;-64
2021/12/28 13:29:57;;;;;;;1.45;0.77;;;;;;;;;;4990791;28;20050;-64
2021/12/28 13:32:28;;;;;;;0.70;0.57;;;;;;;;;;4988536;28;20077;-65
2021/12/28 13:35:00;;;;;;;1.23;0.63;;;;;;;;;;4982212;28;20550;-64
2021/12/28 13:37:37;;;;;;;1.40;0.68;;;;;;;;;;4990478;28;20081;-64
2021/12/28 13:40:22;;;;;;;1.05;0.40;;;;;;;;;;1764866;28;10023245;-65
2021/12/28 13:43:05;;;;;;;0.47;0.40;;;;;;;;;;3940899;28;10001606;-65
2021/12/28 13:45:35;;;;;;;1.42;0.80;;;;;;;;;;4983723;28;20082;-65
2021/12/28 13:48:04;;;;;;;1.33;0.70;;;;;;;;;;4986862;28;20073;-65
2021/12/28 13:50:34;;;;;;;1.85;0.60;;;;;;;;;;4987977;28;20149;-65
2021/12/28 13:53:04;;;;;;;0.75;0.47;;;;;;;;;;4988101;28;20150;-65
2021/12/28 13:55:34;;;;;;;1.17;0.50;;;;;;;;;;4987002;28;20042;-65
2021/12/28 13:58:03;;;;;;;1.27;0.60;;;;;;;;;;4987307;28;20050;-65
2021/12/28 14:00:32;;;;;;;0.85;0.50;;;;;;;;;;4985470;28;20405;-65
2021/12/28 14:03:02;;;;;;;1.48;0.40;;;;;;;;;;4985263;28;20479;-65
2021/12/28 14:05:31;;;;;;;1.13;0.52;;;;;;;;;;4983724;28;20079;-65
2021/12/28 14:08:00;;;;;;;1.27;0.60;;;;;;;;;;4983778;28;20078;-65
2021/12/28 14:10:30;;;;;;;1.10;0.50;;;;;;;;;;4985356;28;20480;-65
2021/12/28 14:13:03;;;;;;;3.60;0.70;;;;;;;;;;4986748;28;20133;-65
2021/12/28 14:15:32;;;;;;;2.65;0.63;;;;;;;;;;4987247;28;20050;-65
2021/12/28 14:18:00;;;;;;;0.93;0.57;;;;;;;;;;4988087;28;20124;-65
2021/12/28 14:20:49;;;;;;;2.08;0.35;;;;;;;;;;4989389;28;20046;-63
2021/12/28 14:23:27;;;;;;;0.90;0.43;;;;;;;;;;4988559;28;20046;-64
2021/12/28 14:26:09;;;;;;;0.40;0.40;;;;;;;;;;4986394;28;20475;-64
2021/12/28 14:28:57;;;;;;;0.45;0.40;;;;;;;;;;4984805;28;20057;-65
2021/12/28 14:31:26;;;;;;;0.28;0.22;;;;;;;;;;4985648;28;20141;-65
2021/12/28 14:33:56;;;;;;;0.43;0.43;;;;;;;;;;4980598;28;20419;-64
2021/12/28 14:36:30;;;;;;;0.60;0.38;;;;;;;;;;4988753;28;20490;-64
2021/12/28 14:39:08;;;;;;;0.47;0.35;;;;;;;;;;4988194;28;20129;-64
2021/12/28 14:41:39;;;;;;;0.80;0.50;;;;;;;;;;4984523;28;20082;-64
2021/12/28 14:44:09;;;;;;;0.95;0.73;;;;;;;;;;4988977;28;20144;-64
2021/12/28 14:46:38;;;;;;;0.65;0.40;;;;;;;;;;4989148;28;20078;-64
2021/12/28 14:49:24;;;;;;;1.85;0.50;;;;;;;;;;4987757;28;20084;-64
2021/12/28 14:51:52;;;;;;;;;;;;;;;;;;4989104;28;20141;-64
2021/12/28 14:54:21;;;;;;;0.35;0.30;;;;;;;;;;4982026;28;19928;-64
2021/12/28 14:57:00;;;;;;;1.13;0.40;;;;;;;;;;4989110;28;20046;-64
2021/12/28 14:59:28;;;;;;;0.50;0.30;;;;;;;;;;4989202;28;20592;-64
2021/12/28 15:01:58;;;;;;;0.75;0.30;;;;;;;;;;4988181;28;20558;-64
2021/12/28 15:04:34;;;;;;;0.95;0.35;;;;;;;;;;518127;28;10021838;-65